Time,TemperatureF,DewpointF,PressureIn,WindDirection,WindDirectionDegrees,WindSpeedMPH,WindSpeedGustMPH,Humidity,HourlyPrecipIn,Conditions,Clouds,dailyrainin,SoftwareType,DateUTC
2013-07-17 00:01:00,75.7,72.0,30.20,East,96,7.0,8.0,88,0.00,,,0.30,weatherlink.com 1.10,2013-07-17 05:01:00,
2013-07-17 00:16:00,74.6,70.0,30.21,ESE,105,5.0,11.0,84,0.00,,,0.00,weatherlink.com 1.10,2013-07-17 05:16:00,
2013-07-17 00:31:00,73.1,69.0,30.20,ESE,117,4.0,9.0,88,0.00,,,0.00,weatherlink.com 1.10,2013-07-17 05:31:00,
2013-07-17 00:46:00,72.9,69.0,30.19,ENE,73,3.0,7.0,87,0.00,,,0.00,weatherlink.com 1.10,2013-07-17 05:46:00,
2013-07-17 01:01:00,72.8,69.0,30.19,ENE,77,3.0,4.0,87,0.00,,,0.00,weatherlink.com 1.10,2013-07-17 06:01:00,
2013-07-17 01:16:00,72.7,69.0,30.19,ENE,68,2.0,2.0,88,0.00,,,0.00,weatherlink.com 1.10,2013-07-17 06:16:00,
2013-07-17 01:31:00,72.3,69.0,30.18,ENE,66,3.0,4.0,90,0.00,,,0.00,weatherlink.com 1.10,2013-07-17 06:31:00,
2013-07-17 01:46:00,72.0,69.0,30.17,NE,49,0.0,2.0,91,0.00,,,0.00,weatherlink.com 1.10,2013-07-17 06:46:00,
2013-07-17 02:01:00,72.0,70.0,30.17,NNE,16,1.0,3.0,92,0.00,,,0.00,weatherlink.com 1.10,2013-07-17 07:01:00,
2013-07-17 02:16:00,71.9,70.0,30.17,North,4,0.0,1.0,92,0.00,,,0.00,weatherlink.com 1.10,2013-07-17 07:16:00,
2013-07-17 02:31:00,71.9,70.0,30.16,NNE,18,0.0,1.0,92,0.00,,,0.00,weatherlink.com 1.10,2013-07-17 07:31:00,
2013-07-17 02:46:00,71.9,70.0,30.16,NE,51,0.0,1.0,92,0.00,,,0.00,weatherlink.com 1.10,2013-07-17 07:46:00,
2013-07-17 03:01:00,71.9,70.0,30.16,ENE,58,0.0,2.0,93,0.00,,,0.00,weatherlink.com 1.10,2013-07-17 08:01:00,
2013-07-17 03:16:00,71.8,70.0,30.16,ENE,59,0.0,1.0,93,0.00,,,0.00,weatherlink.com 1.10,2013-07-17 08:16:00,
2013-07-17 03:31:00,72.1,70.0,30.16,ENE,76,1.0,1.0,93,0.00,,,0.00,weatherlink.com 1.10,2013-07-17 08:31:00,
2013-07-17 03:46:00,72.0,70.0,30.17,ENE,76,0.0,1.0,93,0.00,,,0.00,weatherlink.com 1.10,2013-07-17 08:46:00,
2013-07-17 04:01:00,72.0,70.0,30.16,ENE,77,1.0,1.0,94,0.00,,,0.00,weatherlink.com 1.10,2013-07-17 09:01:00,
2013-07-17 04:16:00,72.3,71.0,30.16,ENE,68,1.0,2.0,94,0.00,,,0.00,weatherlink.com 1.10,2013-07-17 09:16:00,
2013-07-17 04:31:00,72.3,71.0,30.17,NE,52,2.0,3.0,94,0.00,,,0.00,weatherlink.com 1.10,2013-07-17 09:31:00,
2013-07-17 04:46:00,72.4,71.0,30.17,ENE,67,2.0,2.0,94,0.00,,,0.00,weatherlink.com 1.10,2013-07-17 09:46:00,
2013-07-17 05:01:00,72.8,71.0,30.17,ENE,68,1.0,2.0,94,0.00,,,0.00,weatherlink.com 1.10,2013-07-17 10:01:00,
2013-07-17 05:16:00,72.9,71.0,30.17,ENE,72,2.0,3.0,94,0.00,,,0.00,weatherlink.com 1.10,2013-07-17 10:16:00,
2013-07-17 05:31:00,73.1,71.0,30.17,East,82,2.0,4.0,93,0.00,,,0.00,weatherlink.com 1.10,2013-07-17 10:31:00,
2013-07-17 05:46:00,73.3,71.0,30.18,East,79,2.0,4.0,93,0.00,,,0.00,weatherlink.com 1.10,2013-07-17 10:46:00,
2013-07-17 06:01:00,73.5,71.0,30.18,ENE,73,2.0,3.0,93,0.00,,,0.00,weatherlink.com 1.10,2013-07-17 11:01:00,
2013-07-17 06:16:00,73.7,71.0,30.18,ENE,73,2.0,4.0,92,0.00,,,0.00,weatherlink.com 1.10,2013-07-17 11:16:00,
2013-07-17 06:31:00,73.6,71.0,30.19,ENE,75,3.0,5.0,92,0.00,,,0.00,weatherlink.com 1.10,2013-07-17 11:31:00,
2013-07-17 06:46:00,73.7,71.0,30.19,ENE,77,3.0,4.0,92,0.00,,,0.00,weatherlink.com 1.10,2013-07-17 11:46:00,
2013-07-17 07:02:00,73.9,72.0,30.19,East,86,2.0,5.0,92,0.00,,,0.00,weatherlink.com 1.10,2013-07-17 12:02:00,
2013-07-17 07:16:00,74.6,72.0,30.20,ENE,73,3.0,4.0,91,0.00,,,0.00,weatherlink.com 1.10,2013-07-17 12:16:00,
2013-07-17 07:31:00,74.6,72.0,30.20,ENE,78,5.0,6.0,91,0.00,,,0.00,weatherlink.com 1.10,2013-07-17 12:31:00,
2013-07-17 07:46:00,75.2,72.0,30.20,ENE,68,2.0,4.0,90,0.00,,,0.00,weatherlink.com 1.10,2013-07-17 12:46:00,
2013-07-17 08:01:00,75.9,73.0,30.21,East,86,2.0,5.0,89,0.00,,,0.00,weatherlink.com 1.10,2013-07-17 13:01:00,
2013-07-17 08:17:00,76.4,73.0,30.21,East,81,3.0,6.0,88,0.00,,,0.00,weatherlink.com 1.10,2013-07-17 13:17:00,
2013-07-17 08:32:00,76.6,73.0,30.22,East,86,5.0,6.0,87,0.00,,,0.00,weatherlink.com 1.10,2013-07-17 13:32:00,
2013-07-17 08:47:00,76.9,73.0,30.22,East,82,3.0,7.0,87,0.00,,,0.00,weatherlink.com 1.10,2013-07-17 13:47:00,
2013-07-17 09:02:00,77.4,73.0,30.22,ENE,71,5.0,6.0,86,0.00,,,0.00,weatherlink.com 1.10,2013-07-17 14:02:00,
2013-07-17 09:17:00,78.3,74.0,30.22,ESE,109,5.0,6.0,85,0.00,,,0.00,weatherlink.com 1.10,2013-07-17 14:17:00,
2013-07-17 09:32:00,78.5,73.0,30.23,ESE,115,4.0,7.0,84,0.00,,,0.00,weatherlink.com 1.10,2013-07-17 14:32:00,
2013-07-17 09:47:00,79.4,74.0,30.22,ENE,75,3.0,7.0,83,0.00,,,0.00,weatherlink.com 1.10,2013-07-17 14:47:00,
2013-07-17 10:02:00,79.8,74.0,30.22,East,79,6.0,7.0,82,0.00,,,0.00,weatherlink.com 1.10,2013-07-17 15:02:00,
2013-07-17 10:17:00,80.4,74.0,30.22,ESE,102,8.0,8.0,80,0.00,,,0.00,weatherlink.com 1.10,2013-07-17 15:17:00,
2013-07-17 10:32:00,81.0,74.0,30.22,ENE,76,6.0,8.0,79,0.00,,,0.00,weatherlink.com 1.10,2013-07-17 15:32:00,
2013-07-17 10:47:00,82.1,74.0,30.22,East,98,5.0,10.0,76,0.00,,,0.00,weatherlink.com 1.10,2013-07-17 15:47:00,
2013-07-17 11:02:00,82.3,74.0,30.23,ENE,78,4.0,9.0,77,0.00,,,0.00,weatherlink.com 1.10,2013-07-17 16:02:00,
2013-07-17 11:17:00,81.7,74.0,30.23,East,84,5.0,8.0,77,0.00,,,0.00,weatherlink.com 1.10,2013-07-17 16:17:00,
2013-07-17 11:32:00,82.0,74.0,30.22,East,94,4.0,8.0,77,0.00,,,0.00,weatherlink.com 1.10,2013-07-17 16:32:00,
2013-07-17 11:47:00,82.2,74.0,30.22,East,80,3.0,8.0,77,0.00,,,0.00,weatherlink.com 1.10,2013-07-17 16:47:00,
2013-07-17 12:02:00,83.1,74.0,30.22,East,87,6.0,7.0,74,0.00,,,0.00,weatherlink.com 1.10,2013-07-17 17:02:00,
2013-07-17 12:17:00,84.2,74.0,30.21,East,94,6.0,10.0,72,0.00,,,0.00,weatherlink.com 1.10,2013-07-17 17:17:00,
2013-07-17 12:32:00,85.0,74.0,30.21,ESE,108,7.0,9.0,69,0.00,,,0.00,weatherlink.com 1.10,2013-07-17 17:32:00,
2013-07-17 12:47:00,85.5,74.0,30.20,ENE,60,8.0,8.0,68,0.00,,,0.00,weatherlink.com 1.10,2013-07-17 17:47:00,
2013-07-17 13:02:00,86.3,74.0,30.20,ENE,70,5.0,11.0,66,0.00,,,0.00,weatherlink.com 1.10,2013-07-17 18:02:00,
2013-07-17 13:17:00,87.1,72.0,30.19,ESE,103,4.0,10.0,61,0.00,,,0.00,weatherlink.com 1.10,2013-07-17 18:17:00,
2013-07-17 13:32:00,88.5,72.0,30.19,ESE,103,9.0,10.0,58,0.00,,,0.00,weatherlink.com 1.10,2013-07-17 18:32:00,
2013-07-17 13:47:00,88.5,72.0,30.18,ENE,65,8.0,9.0,58,0.00,,,0.00,weatherlink.com 1.10,2013-07-17 18:47:00,
2013-07-17 14:11:00,88.6,73.0,30.17,East,80,12.0,14.0,60,0.00,,,0.00,weatherlink.com 1.10,2013-07-17 19:11:00,
2013-07-17 14:17:00,88.0,72.0,30.17,East,86,7.0,12.0,59,0.00,,,0.00,weatherlink.com 1.10,2013-07-17 19:17:00,
2013-07-17 14:32:00,88.0,72.0,30.17,East,96,7.0,13.0,60,0.00,,,0.00,weatherlink.com 1.10,2013-07-17 19:32:00,
2013-07-17 14:47:00,88.8,72.0,30.16,SE,125,10.0,11.0,57,0.00,,,0.00,weatherlink.com 1.10,2013-07-17 19:47:00,
2013-07-17 15:02:00,87.7,72.0,30.16,ESE,105,7.0,13.0,60,0.00,,,0.00,weatherlink.com 1.10,2013-07-17 20:02:00,
2013-07-17 15:17:00,83.6,73.0,30.16,SSE,165,4.0,19.0,71,0.05,,,0.05,weatherlink.com 1.10,2013-07-17 20:17:00,
2013-07-17 15:32:00,82.4,74.0,30.15,South,169,7.0,8.0,76,0.05,,,0.05,weatherlink.com 1.10,2013-07-17 20:32:00,
2013-07-17 15:47:00,83.2,73.0,30.15,South,170,1.0,6.0,71,0.05,,,0.05,weatherlink.com 1.10,2013-07-17 20:47:00,
2013-07-17 16:02:00,84.4,75.0,30.14,SSE,155,4.0,7.0,73,0.05,,,0.05,weatherlink.com 1.10,2013-07-17 21:02:00,
2013-07-17 16:17:00,84.5,76.0,30.14,South,179,2.0,8.0,75,0.00,,,0.05,weatherlink.com 1.10,2013-07-17 21:17:00,
2013-07-17 16:32:00,83.4,75.0,30.13,South,170,3.0,4.0,75,0.00,,,0.05,weatherlink.com 1.10,2013-07-17 21:32:00,
2013-07-17 16:47:00,84.3,74.0,30.13,SSE,148,3.0,6.0,72,0.00,,,0.05,weatherlink.com 1.10,2013-07-17 21:47:00,
2013-07-17 17:02:00,85.6,73.0,30.14,East,96,8.0,12.0,67,0.00,,,0.05,weatherlink.com 1.10,2013-07-17 22:02:00,
2013-07-17 17:17:00,85.4,71.0,30.14,ESE,110,7.0,8.0,63,0.00,,,0.05,weatherlink.com 1.10,2013-07-17 22:17:00,
2013-07-17 17:33:00,85.3,73.0,30.13,ENE,73,6.0,8.0,67,0.00,,,0.05,weatherlink.com 1.10,2013-07-17 22:33:00,
2013-07-17 17:48:00,85.3,71.0,30.15,ESE,113,4.0,7.0,63,0.00,,,0.05,weatherlink.com 1.10,2013-07-17 22:48:00,
2013-07-17 18:03:00,85.3,72.0,30.14,East,83,3.0,6.0,64,0.00,,,0.05,weatherlink.com 1.10,2013-07-17 23:03:00,
2013-07-17 18:18:00,81.0,69.0,30.17,ESE,104,17.0,33.0,66,0.01,,,0.06,weatherlink.com 1.10,2013-07-17 23:18:00,
2013-07-17 18:33:00,75.7,71.0,30.16,SSE,156,5.0,18.0,85,0.02,,,0.07,weatherlink.com 1.10,2013-07-17 23:33:00,
2013-07-17 18:48:00,75.9,72.0,30.15,SSW,205,3.0,8.0,86,0.02,,,0.07,weatherlink.com 1.10,2013-07-17 23:48:00,
2013-07-17 19:03:00,76.4,72.0,30.15,South,188,2.0,7.0,86,0.02,,,0.07,weatherlink.com 1.10,2013-07-18 00:03:00,
2013-07-17 19:18:00,76.7,73.0,30.15,SW,220,3.0,6.0,87,0.01,,,0.07,weatherlink.com 1.10,2013-07-18 00:18:00,
2013-07-17 19:33:00,76.5,72.0,30.15,South,187,4.0,6.0,85,0.00,,,0.07,weatherlink.com 1.10,2013-07-18 00:33:00,
2013-07-17 19:48:00,76.7,73.0,30.16,SW,232,2.0,5.0,87,0.00,,,0.07,weatherlink.com 1.10,2013-07-18 00:48:00,
2013-07-17 20:03:00,76.7,72.0,30.16,SW,226,2.0,3.0,85,0.00,,,0.07,weatherlink.com 1.10,2013-07-18 01:03:00,
2013-07-17 20:18:00,76.7,72.0,30.15,SW,231,2.0,3.0,85,0.00,,,0.07,weatherlink.com 1.10,2013-07-18 01:18:00,
2013-07-17 20:33:00,76.9,72.0,30.16,SSE,158,0.0,3.0,85,0.00,,,0.07,weatherlink.com 1.10,2013-07-18 01:33:00,
2013-07-17 20:48:00,76.8,72.0,30.16,SSE,158,0.0,1.0,85,0.00,,,0.07,weatherlink.com 1.10,2013-07-18 01:48:00,
2013-07-17 21:03:00,76.5,72.0,30.17,SSE,158,0.0,0.0,86,0.00,,,0.07,weatherlink.com 1.10,2013-07-18 02:03:00,
2013-07-17 21:18:00,76.1,72.0,30.16,SSE,158,0.0,0.0,87,0.00,,,0.07,weatherlink.com 1.10,2013-07-18 02:18:00,
2013-07-17 21:33:00,76.2,72.0,30.16,SSE,158,0.0,1.0,86,0.00,,,0.07,weatherlink.com 1.10,2013-07-18 02:33:00,
2013-07-17 21:48:00,76.2,72.0,30.16,SSE,156,0.0,1.0,86,0.00,,,0.07,weatherlink.com 1.10,2013-07-18 02:48:00,
2013-07-17 22:03:00,76.1,72.0,30.17,SSE,156,0.0,1.0,86,0.00,,,0.07,weatherlink.com 1.10,2013-07-18 03:03:00,
2013-07-17 22:18:00,75.9,72.0,30.17,SSE,157,0.0,0.0,87,0.00,,,0.07,weatherlink.com 1.10,2013-07-18 03:18:00,
2013-07-17 22:33:00,76.0,72.0,30.17,SSE,156,0.0,0.0,87,0.00,,,0.07,weatherlink.com 1.10,2013-07-18 03:33:00,
2013-07-17 22:48:00,75.8,72.0,30.18,SSE,158,0.0,0.0,87,0.00,,,0.07,weatherlink.com 1.10,2013-07-18 03:48:00,
2013-07-17 23:03:00,75.8,72.0,30.18,SSE,158,0.0,0.0,88,0.00,,,0.07,weatherlink.com 1.10,2013-07-18 04:03:00,
2013-07-17 23:18:00,75.8,72.0,30.18,SSE,158,0.0,0.0,87,0.00,,,0.07,weatherlink.com 1.10,2013-07-18 04:18:00,
2013-07-17 23:33:00,75.8,72.0,30.18,SSE,158,0.0,0.0,87,0.00,,,0.07,weatherlink.com 1.10,2013-07-18 04:33:00,
2013-07-17 23:48:00,75.8,72.0,30.18,SSE,157,0.0,0.0,87,0.00,,,0.07,weatherlink.com 1.10,2013-07-18 04:48:00,